Terminal Aerodrome Forecast
Issued by NWS

Home | Current Version | Previous Version | Text Only | Print | Product List | Glossary On
Versions: 1 2 3 4 5 6 7 8 9 10 11 12 13 14 15 16 17 18 19 20 21 22 23 24 25 26 27 28 29
000
FTUS46 KMTR 190539
TAFSFO
TAF
KSFO 190539Z 1906/2012 VRB03KT P6SM VCSH FEW010 SCT019 OVC035
      TEMPO 1906/1909 4SM -RA BKN007 BKN013 OVC030
     FM191500 27009KT 6SM -SHRA BR SCT020 BKN030
     FM192200 29011KT P6SM VCSH SCT020 BKN050
     FM200200 29012KT P6SM SCT025 BKN050=

USA.gov is the U.S. government's official web portal to all federal, state and local government web resources and services.